Oilville, Virginia
Current Conditions -  °F | °C
As of 8:55 PM on Wednesday 22 Oct 2014 (Local Time) from K7W4 Reporting Station
Overcast Overcast  
Wind Chill: 53°   Ceiling: 12000
Heat Index: 53°   Visibility: 10mi
Dew Point: 44°   Wind: 3mph
Humidity: 71%   Direction: 310°NW
Pressure: 29.97"   Gusts: NA
Location:  37.7°N, 77.78°W
Report Text: K7W4 230055Z AUTO 31003KT 10SM SCT090 OVC120 12/07 A2997 RMK AO1 T01190067
Loading
Personal Weather Stations






























Interactive Weather Map
Tropical Storm Tracking
New forecast layout! Learn more

10-Day Weather Forecast

Advertisements
Track Severe Weather on mobile